Time;durP1;ratioP1;P1;durP2;ratioP2;P2;SDS_P1;SDS_P2;PMS_P1;PMS_P2;Temp;Humidity;BMP_temperature;BMP_pressure;BME280_temperature;BME280_humidity;BME280_pressure;Samples;Min_cycle;Max_cycle;Signal;HPM_P1;HPM_P2
2022/08/16 00:01:21;;;;;;;3.45;2.47;;;16.80;67.50;;;12.73;96.13;95034.81;4899598;29;20050;-45
2022/08/16 00:03:47;;;;;;;2.40;2.20;;;16.80;67.40;;;12.67;95.74;95035.19;4914716;29;20460;-47
2022/08/16 00:06:13;;;;;;;3.03;2.35;;;16.80;67.40;;;12.67;95.19;95037.84;4915117;29;20106;-44
2022/08/16 00:08:39;;;;;;;3.25;2.42;;;16.80;67.50;;;12.66;96.12;95053.09;4916598;29;20063;-44
2022/08/16 00:11:11;;;;;;;6.30;2.35;;;16.80;67.60;;;12.66;96.21;95053.09;4915359;29;20165;-44
2022/08/16 00:13:37;;;;;;;3.72;2.45;;;16.70;67.90;;;12.65;95.65;95056.03;4899057;29;20067;-44
2022/08/16 00:16:04;;;;;;;3.10;2.20;;;16.70;67.70;;;12.58;95.44;95047.59;4914685;29;20505;-44
2022/08/16 00:18:30;;;;;;;4.78;2.47;;;16.70;67.70;;;12.54;95.42;95046.59;4916082;29;20023;-45
2022/08/16 00:20:57;;;;;;;3.08;2.67;;;16.70;67.80;;;12.52;95.68;95056.78;4916227;29;20023;-44
2022/08/16 00:23:23;;;;;;;6.07;2.70;;;16.60;67.80;;;12.47;96.15;95047.75;4930209;29;20020;-44
2022/08/16 00:25:55;;;;;;;2.90;2.30;;;16.60;67.90;;;12.45;96.77;95057.13;4930423;29;20051;-44
2022/08/16 00:28:27;;;;;;;2.72;2.40;;;16.60;68.20;;;12.49;96.23;95055.47;4915848;29;20043;-46
2022/08/16 00:30:59;;;;;;;3.58;2.65;;;16.60;68.10;;;12.47;96.33;95049.63;4930703;29;20023;-45
2022/08/16 00:33:37;;;;;;;3.58;2.38;;;16.60;68.90;;;12.43;95.85;95052.06;4896675;29;20063;-45
2022/08/16 00:36:04;;;;;;;2.65;2.20;;;16.60;68.40;;;12.42;95.83;95052.38;4895777;29;20107;-48
2022/08/16 00:38:30;;;;;;;3.13;2.45;;;16.60;68.20;;;12.42;96.29;95050.50;4895692;29;20399;-47
2022/08/16 00:40:58;;;;;;;3.55;2.67;;;16.60;68.30;;;12.41;95.83;95048.91;4896836;29;20075;-45
2022/08/16 00:43:35;;;;;;;4.10;2.65;;;16.50;68.20;;;12.37;95.62;95055.91;4888837;29;20055;-44
2022/08/16 00:46:25;;;;;;;4.63;2.30;;;16.50;68.40;;;12.33;96.37;95054.88;4914070;29;20042;-44
2022/08/16 00:48:53;;;;;;;4.97;2.50;;;16.50;68.40;;;12.35;95.87;95054.63;4914650;29;20024;-47
2022/08/16 00:51:24;;;;;;;3.58;2.50;;;16.50;68.30;;;12.32;96.47;95058.66;4915534;29;20472;-47
2022/08/16 00:53:54;;;;;;;2.83;2.60;;;16.50;68.40;;;12.34;96.37;95058.34;4914105;29;20489;-45
2022/08/16 00:56:34;;;;;;;4.35;2.40;;;16.50;68.50;;;12.32;95.84;95055.97;4914083;29;20043;-45
2022/08/16 00:59:00;;;;;;;3.85;3.15;;;16.50;68.50;;;12.24;96.25;95057.41;4914269;29;20039;-45
2022/08/16 01:01:27;;;;;;;3.08;2.67;;;16.40;68.30;;;12.22;96.15;95048.91;4914060;29;20469;-45
2022/08/16 01:03:54;;;;;;;4.38;2.67;;;16.40;68.30;;;12.27;97.25;95062.16;4913534;29;20166;-46
2022/08/16 01:06:28;;;;;;;3.00;2.28;;;16.40;68.50;;;12.30;96.85;95068.81;4913885;29;20015;-45
2022/08/16 01:08:57;;;;;;;2.92;2.00;;;16.40;68.70;;;12.32;97.35;95065.88;4915269;29;20024;-46
2022/08/16 01:11:28;;;;;;;3.55;2.47;;;16.40;68.70;;;12.32;97.07;95064.00;4898419;29;20028;-44
2022/08/16 01:14:17;;;;;;;4.45;2.15;;;16.40;68.70;;;12.36;96.80;95073.00;4929352;29;20042;-44
2022/08/16 01:16:49;;;;;;;3.53;2.42;;;16.40;68.90;;;12.36;96.70;95077.56;4914784;29;20043;-45
2022/08/16 01:19:40;;;;;;;4.25;2.30;;;16.40;68.80;;;12.37;96.87;95082.59;4899144;29;20419;-45
2022/08/16 01:22:15;;;;;;;2.47;2.28;;;16.40;68.80;;;12.39;97.15;95087.69;4913841;29;20047;-44
2022/08/16 01:25:23;;;;;;;4.85;2.17;;;16.50;68.70;;;12.36;96.71;95082.91;4928972;29;20032;-44
2022/08/16 01:27:57;;;;;;;3.35;2.30;;;16.40;68.80;;;12.33;96.76;95081.59;4929935;29;20032;-44
2022/08/16 01:30:39;;;;;;;6.10;2.55;;;16.40;68.80;;;12.34;96.50;95079.72;4913685;29;20387;-44
2022/08/16 01:33:13;;;;;;;4.25;2.40;;;16.40;68.80;;;12.33;96.99;95078.94;4913288;29;20478;-45
2022/08/16 01:36:06;;;;;;;4.00;2.60;;;16.40;68.80;;;12.33;96.40;95080.81;4913409;29;20129;-45
2022/08/16 01:38:42;;;;;;;3.80;2.20;;;16.40;68.90;;;12.24;96.37;95081.44;4914005;29;20431;-49
2022/08/16 01:41:17;;;;;;;3.15;2.45;;;16.40;69.50;;;12.25;96.89;95076.88;4913603;29;20032;-45
2022/08/16 01:43:48;;;;;;;5.53;2.30;;;16.40;68.80;;;12.23;96.65;95071.84;4914210;29;20026;-45
2022/08/16 01:46:36;;;;;;;3.72;2.60;;;16.40;68.80;;;12.26;96.78;95073.94;4897395;29;20023;-47
2022/08/16 01:49:27;;;;;;;3.80;2.25;;;16.40;68.90;;;12.29;96.83;95074.47;4913459;29;20042;-47
2022/08/16 01:52:07;;;;;;;3.08;2.47;;;16.40;69.00;;;12.25;97.13;95072.38;4914417;29;20102;-45
2022/08/16 01:54:36;;;;;;;4.70;2.53;;;16.40;69.00;;;12.27;96.83;95066.72;4897479;29;20120;-49
2022/08/16 01:57:05;;;;;;;5.22;2.63;;;16.30;68.80;;;12.24;97.33;95070.75;4925101;29;20039;-46
2022/08/16 01:59:34;;;;;;;4.03;2.47;;;16.30;68.90;;;12.26;97.46;95070.47;4916542;29;20081;-48
2022/08/16 02:02:01;;;;;;;2.97;2.42;;;16.30;69.00;;;12.25;97.46;95071.53;4933172;29;20058;-49
2022/08/16 02:04:34;;;;;;;2.97;2.67;;;16.30;68.90;;;12.34;98.66;95061.81;4916071;29;20208;-46
2022/08/16 02:07:19;;;;;;;6.40;2.40;;;16.30;69.30;;;12.34;97.50;95063.69;4916205;29;20105;-49
2022/08/16 02:09:54;;;;;;;3.00;2.70;;;16.30;69.30;;;12.25;97.68;95061.69;4933410;29;20038;-49
2022/08/16 02:12:20;;;;;;;5.00;2.53;;;16.30;69.10;;;12.20;97.76;95059.06;4932818;29;20038;-47
2022/08/16 02:14:46;;;;;;;4.55;2.67;;;16.30;69.00;;;12.19;97.43;95060.16;4933003;29;20475;-45
2022/08/16 02:17:12;;;;;;;4.70;2.80;;;16.30;69.10;;;12.26;98.37;95057.13;4933018;29;20481;-44
2022/08/16 02:19:47;;;;;;;4.15;2.80;;;16.30;69.30;;;12.27;97.91;95056.03;4900583;29;20109;-46
2022/08/16 02:22:21;;;;;;;3.03;2.60;;;16.30;69.40;;;12.26;97.63;95057.13;4916597;29;20027;-46
2022/08/16 02:24:51;;;;;;;5.82;2.88;;;16.30;69.50;;;12.22;97.25;95054.25;4916222;29;20085;-46
2022/08/16 02:27:21;;;;;;;2.90;2.10;;;16.30;69.50;;;12.28;98.31;95049.59;4900037;29;20389;-45
2022/08/16 02:29:55;;;;;;;6.55;2.40;;;16.40;69.60;;;12.26;97.16;95051.78;4916415;29;20559;-51
2022/08/16 02:32:24;;;;;;;3.67;2.28;;;16.40;69.60;;;12.21;97.09;95060.66;4932524;29;20027;-47
2022/08/16 02:34:56;;;;;;;3.00;2.65;;;16.30;69.40;;;12.23;98.11;95052.38;4914357;29;20046;-44
2022/08/16 02:37:22;;;;;;;3.33;2.50;;;16.30;69.40;;;12.24;97.64;95052.06;4913835;29;20020;-48
2022/08/16 02:39:48;;;;;;;3.65;2.67;;;16.30;69.30;;;12.31;98.40;95051.69;4912459;29;20086;-46
2022/08/16 02:42:14;;;;;;;2.63;2.28;;;16.30;69.50;;;12.37;98.75;95050.56;4913747;29;20118;-47
2022/08/16 02:44:42;;;;;;;4.18;2.22;;;16.40;69.80;;;12.37;97.92;95041.75;4896496;29;20027;-44
2022/08/16 02:47:15;;;;;;;2.67;2.40;;;16.40;69.70;;;12.36;97.17;95040.16;4913981;29;20475;-46
2022/08/16 02:49:42;;;;;;;3.55;2.42;;;16.40;69.90;;;12.32;96.69;95039.97;4896997;29;20034;-48
2022/08/16 02:52:12;;;;;;;2.58;2.20;;;16.40;69.50;;;12.26;96.96;95033.09;4912542;29;20028;-47
2022/08/16 02:54:38;;;;;;;3.60;2.50;;;16.40;69.50;;;12.19;96.33;95028.13;4913485;29;20061;-44
2022/08/16 02:57:04;;;;;;;3.30;2.63;;;16.40;69.40;;;12.17;97.08;95021.47;4913846;29;20048;-51
2022/08/16 02:59:33;;;;;;;4.00;2.53;;;16.40;69.40;;;12.16;96.72;95022.53;4913971;29;20136;-50
2022/08/16 03:02:12;;;;;;;3.17;2.30;;;16.30;69.40;;;12.12;96.66;95022.31;4896738;29;20027;-44
2022/08/16 03:04:41;;;;;;;2.90;2.60;;;16.30;69.50;;;12.09;96.70;95022.91;4912143;29;20110;-46
2022/08/16 03:07:15;;;;;;;5.07;2.60;;;16.30;69.40;;;12.07;97.45;95022.41;4896818;29;20035;-44
2022/08/16 03:09:43;;;;;;;3.67;2.80;;;16.20;69.60;;;12.04;96.88;95014.97;4914131;29;20550;-45
2022/08/16 03:12:09;;;;;;;3.13;2.65;;;16.20;69.50;;;12.01;96.72;95012.88;4913071;29;20304;-45
2022/08/16 03:14:37;;;;;;;5.38;2.63;;;16.20;69.50;;;11.99;96.17;95012.34;4899993;29;20066;-44
2022/08/16 03:17:06;;;;;;;3.50;2.60;;;16.10;69.30;;;11.90;96.26;95006.06;4916964;29;20034;-44
2022/08/16 03:19:38;;;;;;;4.03;2.50;;;16.10;69.30;;;11.87;96.40;95012.75;4917168;29;20520;-45
2022/08/16 03:22:10;;;;;;;4.13;2.45;;;16.10;69.50;;;11.84;96.76;95009.84;4900610;29;20036;-45
2022/08/16 03:24:42;;;;;;;5.32;2.80;;;16.00;69.40;;;11.78;97.09;95003.78;4918328;29;20054;-45
2022/08/16 03:27:09;;;;;;;3.80;2.90;;;16.00;69.30;;;11.78;97.67;94995.75;4936118;29;20482;-47
2022/08/16 03:29:35;;;;;;;4.78;2.85;;;16.00;69.40;;;11.81;96.74;94995.19;4934798;29;20030;-45
2022/08/16 03:32:02;;;;;;;3.30;2.72;;;16.00;69.50;;;11.76;96.45;94996.06;4936257;29;20474;-47
2022/08/16 03:34:32;;;;;;;3.78;2.78;;;15.90;69.50;;;11.71;96.24;95001.47;4915323;29;20495;-46
2022/08/16 03:36:59;;;;;;;5.18;3.33;;;15.90;69.50;;;11.69;96.23;95008.16;4900211;29;20035;-49
2022/08/16 03:39:31;;;;;;;4.28;2.83;;;15.90;69.50;;;11.65;97.25;95007.13;4884297;29;20513;-47
2022/08/16 03:42:09;;;;;;;4.45;2.75;;;15.90;69.70;;;11.66;97.08;94993.53;4915249;29;20031;-47
2022/08/16 03:44:35;;;;;;;3.42;2.75;;;15.80;69.60;;;11.64;97.17;95001.00;4916603;29;20390;-45
2022/08/16 03:47:08;;;;;;;4.60;3.20;;;15.80;69.50;;;11.63;97.78;95006.66;4884159;29;20380;-48
2022/08/16 03:49:43;;;;;;;5.55;2.63;;;15.80;69.80;;;11.65;97.52;95004.47;4900089;29;20055;-45
2022/08/16 03:52:12;;;;;;;7.40;2.97;;;15.80;69.90;;;11.63;97.46;94998.66;4915320;29;20441;-45
2022/08/16 03:54:38;;;;;;;4.53;3.03;;;15.80;69.80;;;11.59;97.34;95001.06;4884053;29;20032;-46
2022/08/16 03:57:05;;;;;;;4.65;2.88;;;15.80;69.80;;;11.56;97.69;95005.13;4899365;29;20075;-47
2022/08/16 03:59:31;;;;;;;4.75;3.00;;;15.70;69.80;;;11.54;97.64;95004.59;4915476;29;20037;-47
2022/08/16 04:02:03;;;;;;;4.25;2.63;;;15.70;69.80;;;11.57;98.63;95011.25;4916408;29;20086;-45
2022/08/16 04:04:34;;;;;;;6.47;3.03;;;15.80;70.10;;;11.58;98.02;95010.16;4907442;29;20051;-47
2022/08/16 04:07:09;;;;;;;4.70;3.20;;;15.70;70.00;;;11.50;97.30;95000.91;4935199;29;20726;-44
2022/08/16 04:09:45;;;;;;;4.53;3.22;;;15.70;70.00;;;11.47;97.59;94996.16;4935598;29;20031;-50
2022/08/16 04:12:12;;;;;;;6.10;3.20;;;15.70;70.00;;;11.47;97.48;94993.47;4934979;29;20051;-47
2022/08/16 04:14:40;;;;;;;3.97;3.10;;;15.70;69.90;;;11.48;98.18;94997.72;4918336;29;20037;-44
2022/08/16 04:17:09;;;;;;;5.93;3.08;;;15.70;70.10;;;11.48;98.07;94996.94;4900472;29;20030;-47
2022/08/16 04:19:38;;;;;;;8.50;3.40;;;15.70;70.20;;;11.46;97.58;94996.41;4935305;28;20117;-45
2022/08/16 04:22:10;;;;;;;4.38;3.40;;;15.70;70.10;;;11.41;97.55;94996.50;4917951;29;20106;-45
2022/08/16 04:24:37;;;;;;;6.40;3.15;;;15.70;70.20;;;11.40;97.28;95000.22;4932557;28;20117;-49
2022/08/16 04:27:09;;;;;;;8.80;3.40;;;15.60;70.00;;;11.38;97.42;95005.84;4933548;29;20042;-47
2022/08/16 04:29:41;;;;;;;8.77;4.33;;;15.60;70.10;;;11.38;97.63;95002.41;4935227;29;20019;-46
2022/08/16 04:32:07;;;;;;;4.90;3.85;;;15.60;70.10;;;11.37;97.96;94996.25;4935070;29;20031;-45
2022/08/16 04:34:40;;;;;;;6.43;3.80;;;15.60;70.00;;;11.39;98.40;95002.09;4934692;29;20085;-44
2022/08/16 04:37:06;;;;;;;;;;;15.60;70.20;;;11.42;98.00;95000.75;4933835;29;20031;-44
2022/08/16 04:39:39;;;;;;;7.10;4.13;;;15.60;69.70;;;11.41;98.06;94997.28;4934677;29;19958;-45
2022/08/16 04:42:09;;;;;;;6.25;3.70;;;15.60;70.00;;;11.41;98.22;94999.16;4935157;29;20031;-45
2022/08/16 04:44:35;;;;;;;6.82;3.78;;;15.70;70.00;;;11.44;98.79;95003.91;4901745;29;20027;-48
2022/08/16 04:47:06;;;;;;;6.88;3.85;;;15.60;70.10;;;11.49;99.51;95009.97;4917103;29;20027;-47
2022/08/16 04:49:35;;;;;;;7.47;3.80;;;15.70;70.30;;;11.57;99.56;95011.25;4918374;29;20460;-45
2022/08/16 04:52:06;;;;;;;3.97;3.40;;;15.70;70.40;;;11.63;99.65;95014.66;4934654;29;20048;-44
2022/08/16 04:54:40;;;;;;;10.13;4.13;;;15.80;70.70;;;11.67;99.67;95013.78;4933193;29;21196;-44
2022/08/16 04:57:06;;;;;;;6.35;3.65;;;15.80;70.70;;;11.73;99.04;95019.84;4916209;28;20130;-46
2022/08/16 04:59:32;;;;;;;6.50;3.63;;;15.90;70.50;;;11.75;98.67;95026.50;4917201;29;20114;-44
2022/08/16 05:02:00;;;;;;;5.47;4.05;;;15.90;70.40;;;11.81;98.61;95029.88;4906868;29;20114;-45
2022/08/16 05:04:30;;;;;;;7.45;4.07;;;16.00;70.40;;;12.00;99.38;95027.28;4898509;29;20023;-47
2022/08/16 05:06:59;;;;;;;6.32;4.10;;;16.10;70.50;;;12.22;99.40;95024.88;4931527;28;20023;-45
2022/08/16 05:09:24;;;;;;;5.00;3.70;;;16.20;70.70;;;12.44;99.00;95015.47;4934160;29;20078;-47
2022/08/16 05:11:50;;;;;;;4.85;3.50;;;16.40;70.60;;;12.67;98.59;95009.25;4934048;29;20035;-47
2022/08/16 05:14:16;;;;;;;4.75;3.05;;;16.50;70.50;;;12.89;97.68;95022.00;4934150;28;20514;-44
2022/08/16 05:16:43;;;;;;;6.22;3.70;;;16.70;70.60;;;13.13;97.56;95023.72;4933748;29;20054;-46
2022/08/16 05:19:11;;;;;;;3.90;3.05;;;16.80;70.40;;;13.31;95.28;95022.91;4934562;29;20129;-47
2022/08/16 05:21:38;;;;;;;3.70;2.70;;;17.00;70.40;;;13.56;95.75;95026.22;4934112;29;20038;-45
2022/08/16 05:24:06;;;;;;;3.65;3.15;;;17.30;70.10;;;13.81;94.27;95028.38;4916982;29;20050;-44
2022/08/16 05:26:36;;;;;;;7.45;2.97;;;17.50;69.90;;;14.05;93.00;95017.47;4916443;29;20031;-48
2022/08/16 05:29:04;;;;;;;7.45;2.78;;;17.70;69.50;;;14.35;92.92;95020.56;4917548;29;20363;-43
2022/08/16 05:31:32;;;;;;;4.15;2.70;;;18.00;69.20;;;14.60;90.72;95019.25;4901467;29;20058;-43
2022/08/16 05:34:08;;;;;;;4.65;2.90;;;18.30;68.80;;;14.81;88.22;95024.94;4932533;29;20027;-45
2022/08/16 05:36:34;;;;;;;3.05;2.53;;;18.50;68.30;;;15.11;88.42;95017.25;4916312;29;20128;-42
2022/08/16 05:39:00;;;;;;;4.95;3.53;;;18.80;67.90;;;15.38;86.09;95019.75;4932688;28;20046;-47
2022/08/16 05:41:25;;;;;;;3.80;2.50;;;19.00;67.60;;;15.63;84.37;95015.59;4913993;29;20031;-43
2022/08/16 05:43:51;;;;;;;3.47;2.35;;;19.30;67.10;;;15.93;83.88;95022.06;4929873;29;20069;-43
2022/08/16 05:46:18;;;;;;;3.33;2.47;;;19.60;66.80;;;16.25;81.75;95036.22;4901244;29;20518;-44
2022/08/16 05:48:45;;;;;;;2.45;2.20;;;19.90;66.30;;;16.46;79.11;95036.41;4882267;29;20420;-45
2022/08/16 05:51:11;;;;;;;3.05;2.08;;;20.20;65.60;;;16.74;78.32;95036.91;4914221;29;20118;-44
2022/08/16 05:53:37;;;;;;;3.72;2.42;;;20.50;65.00;;;17.05;78.56;95026.00;4925592;28;20196;-48
2022/08/16 05:56:03;;;;;;;5.82;3.05;;;20.80;64.40;;;17.40;76.64;95030.50;4920223;28;20043;-46
2022/08/16 05:58:29;;;;;;;2.50;2.30;;;21.10;63.90;;;17.66;74.26;95031.22;4936402;28;20090;-45
2022/08/16 06:01:02;;;;;;;3.25;2.63;;;21.40;63.10;;;17.92;73.42;95036.50;4919280;29;20035;-47
2022/08/16 06:03:31;;;;;;;4.90;2.55;;;21.70;62.30;;;18.19;71.26;95029.88;4919292;29;20029;-47
2022/08/16 06:05:58;;;;;;;4.22;2.33;;;22.00;61.60;;;18.39;68.97;95031.03;4889349;29;20032;-45
2022/08/16 06:08:24;;;;;;;4.63;2.40;;;22.30;61.40;;;18.59;68.68;95029.47;4896889;29;20023;-47
2022/08/16 06:10:57;;;;;;;4.10;2.70;;;22.60;59.90;;;18.76;67.70;95033.97;4918158;28;20069;-44
2022/08/16 06:13:25;;;;;;;5.13;3.10;;;22.90;59.70;;;18.96;67.15;95027.00;4920238;29;20050;-46
2022/08/16 06:15:53;;;;;;;3.03;2.60;;;23.10;58.60;;;19.18;67.47;95025.84;4928217;28;20051;-44
2022/08/16 06:18:19;;;;;;;3.63;2.80;;;23.30;58.20;;;19.48;64.58;95026.47;4925325;28;20050;-43
2022/08/16 06:20:45;;;;;;;5.68;2.70;;;23.60;57.70;;;19.67;64.15;95034.06;4910478;29;20126;-43
2022/08/16 06:23:11;;;;;;;2.33;2.13;;;23.90;57.20;;;19.93;63.46;95036.50;4926155;28;20157;-45
2022/08/16 06:25:37;;;;;;;5.63;2.65;;;24.10;56.60;;;20.21;61.84;95038.50;4916633;29;20042;-49
2022/08/16 06:28:06;;;;;;;4.20;2.60;;;24.40;55.80;;;20.47;62.06;95038.16;4929163;28;20043;-48
2022/08/16 06:30:32;;;;;;;5.57;3.33;;;24.70;55.30;;;20.76;60.49;95029.75;4899279;28;20031;-45
2022/08/16 06:32:58;;;;;;;5.28;2.88;;;25.00;54.90;;;20.99;60.23;95031.94;4933630;29;20318;-45
2022/08/16 06:35:30;;;;;;;3.42;2.92;;;25.30;54.30;;;21.28;59.11;95038.94;4915022;29;20032;-46
2022/08/16 06:37:56;;;;;;;6.45;2.92;;;25.60;53.70;;;21.47;57.82;95030.19;4920621;29;20367;-43
2022/08/16 06:40:23;;;;;;;4.38;2.80;;;25.90;53.10;;;21.70;56.48;95038.50;4932662;29;20130;-44
2022/08/16 06:42:51;;;;;;;3.55;2.80;;;26.10;52.30;;;21.81;55.95;95036.88;4942528;29;20037;-44
2022/08/16 06:45:17;;;;;;;3.95;3.22;;;26.50;51.70;;;22.01;55.79;95034.25;4913926;29;20031;-48
2022/08/16 06:47:44;;;;;;;5.78;3.17;;;26.80;51.10;;;22.29;55.75;95037.66;4927641;29;20023;-44
2022/08/16 06:50:11;;;;;;;3.33;3.00;;;27.00;50.50;;;22.56;54.70;95037.84;4919984;29;20350;-49
2022/08/16 06:52:37;;;;;;;3.63;2.80;;;27.30;49.90;;;22.62;54.24;95037.22;4916404;28;20039;-54
2022/08/16 06:55:08;;;;;;;3.95;3.05;;;27.50;49.50;;;22.67;55.13;95041.59;4929391;29;20055;-49
2022/08/16 06:57:34;;;;;;;6.22;3.08;;;27.70;49.40;;;22.85;53.72;95047.41;4919934;29;20129;-44
2022/08/16 07:00:13;;;;;;;4.30;3.05;;;27.80;48.50;;;23.05;53.84;95050.94;4918135;29;20110;-52
2022/08/16 07:02:42;;;;;;;4.00;3.35;;;28.00;48.00;;;23.25;53.16;95035.44;4937192;29;20047;-44
2022/08/16 07:05:15;;;;;;;6.07;3.05;;;28.20;47.70;;;23.44;51.82;95040.88;4919986;29;20401;-46
2022/08/16 07:07:47;;;;;;;4.97;3.13;;;28.40;47.20;;;23.44;51.74;95043.59;4919486;29;20023;-46
2022/08/16 07:10:15;;;;;;;3.67;3.33;;;28.60;46.70;;;23.38;51.11;95049.66;4869279;29;22812;-44
2022/08/16 07:12:42;;;;;;;3.42;3.13;;;28.80;46.20;;;23.40;50.97;95041.94;4917399;29;20045;-48
2022/08/16 07:15:09;;;;;;;3.42;3.13;;;29.00;45.70;;;23.30;51.97;95035.94;4900654;29;20040;-44
2022/08/16 07:17:37;;;;;;;3.03;2.72;;;29.10;45.20;;;23.44;52.50;95045.50;4899926;29;20027;-46
2022/08/16 07:20:07;;;;;;;4.32;2.90;;;29.30;44.80;;;23.70;50.52;95042.91;4900689;29;20056;-47
2022/08/16 07:22:35;;;;;;;3.72;3.20;;;29.50;44.30;;;23.81;50.14;95043.09;4915252;29;20019;-45
2022/08/16 07:25:26;;;;;;;3.67;2.90;;;29.80;44.00;;;24.05;49.72;95044.66;4930105;28;20018;-43
2022/08/16 07:27:55;;;;;;;5.07;2.97;;;30.00;43.50;;;24.40;49.00;95041.72;4903357;29;20027;-48
2022/08/16 07:30:25;;;;;;;3.90;2.95;;;30.20;42.80;;;24.72;48.30;95048.81;4936321;29;20027;-50
2022/08/16 07:32:51;;;;;;;3.55;3.15;;;30.50;42.50;;;25.09;46.83;95046.19;4918810;29;20110;-46
2022/08/16 07:35:37;;;;;;;3.08;2.75;;;30.80;42.10;;;25.38;46.52;95053.56;4903359;29;20031;-45
2022/08/16 07:38:12;;;;;;;3.45;3.15;;;31.00;41.60;;;25.64;45.67;95049.19;4934389;29;20035;-44
2022/08/16 07:40:47;;;;;;;3.67;3.08;;;31.40;41.00;;;25.75;44.89;95050.06;4919028;29;20482;-47
2022/08/16 07:43:26;;;;;;;4.70;3.40;;;31.60;40.20;;;25.82;45.78;95052.91;4918866;29;20034;-43
2022/08/16 07:45:58;;;;;;;5.53;2.85;;;31.80;39.90;;;25.90;44.68;95048.28;4935730;29;20037;-47
2022/08/16 07:48:30;;;;;;;4.90;3.00;;;32.00;39.40;;;25.95;44.99;95050.69;4918533;29;20461;-43
2022/08/16 07:51:08;;;;;;;3.47;3.17;;;32.20;39.00;;;26.13;44.58;95058.22;4936012;29;20058;-44
2022/08/16 07:53:34;;;;;;;3.90;3.03;;;32.40;38.80;;;26.26;44.58;95064.94;4935767;29;20073;-48
2022/08/16 07:56:00;;;;;;;5.13;3.35;;;32.50;38.40;;;26.37;44.28;95067.78;4917668;29;20047;-47
2022/08/16 07:58:28;;;;;;;3.40;3.10;;;32.60;38.00;;;26.57;43.57;95066.38;4901802;29;20030;-47
2022/08/16 08:00:58;;;;;;;3.67;3.08;;;32.70;37.60;;;26.74;43.47;95073.13;4935486;29;20053;-44
2022/08/16 08:03:32;;;;;;;3.85;3.45;;;32.90;37.40;;;26.89;43.41;95071.25;4902662;29;20023;-46
2022/08/16 08:06:02;;;;;;;5.88;3.08;;;33.00;37.10;;;27.14;43.08;95071.41;4935251;29;20031;-50
2022/08/16 08:08:34;;;;;;;7.25;3.58;;;33.20;37.00;;;27.38;41.84;95076.22;4935380;29;20023;-43
2022/08/16 08:10:59;;;;;;;5.32;2.95;;;33.40;36.50;;;27.72;41.97;95070.47;4935190;29;20406;-46
2022/08/16 08:13:31;;;;;;;4.78;3.47;;;33.60;36.50;;;27.81;41.32;95068.16;4935324;29;20031;-44
2022/08/16 08:15:57;;;;;;;4.32;2.92;;;33.80;35.90;;;27.78;41.22;95068.16;4933779;29;20149;-51
2022/08/16 08:18:29;;;;;;;4.85;3.28;;;34.00;35.90;;;27.51;41.90;95071.19;4902739;29;20110;-43
2022/08/16 08:20:58;;;;;;;3.53;3.22;;;34.20;35.30;;;27.68;41.71;95069.69;4918195;29;20387;-44
2022/08/16 08:23:35;;;;;;;5.55;3.05;;;34.30;35.10;;;28.00;41.59;95075.25;4934980;29;20030;-49
2022/08/16 08:26:03;;;;;;;3.83;3.50;;;34.50;35.40;;;28.37;40.67;95063.91;4934537;29;20015;-47
2022/08/16 08:28:36;;;;;;;4.93;3.55;;;34.70;34.70;;;28.87;39.77;95079.56;4935009;29;20035;-46
2022/08/16 08:31:06;;;;;;;4.43;3.13;;;34.90;34.20;;;29.28;38.32;95070.84;4902380;29;20058;-47
2022/08/16 08:33:33;;;;;;;3.92;3.50;;;35.10;33.80;;;29.48;37.12;95074.66;4887106;29;20023;-46
2022/08/16 08:36:06;;;;;;;6.07;3.20;;;35.30;33.30;;;29.74;36.06;95075.34;4916690;29;20055;-46
2022/08/16 08:38:37;;;;;;;4.03;3.03;;;35.60;32.70;;;29.78;35.40;95076.13;4917872;29;20023;-48
2022/08/16 08:41:07;;;;;;;6.20;3.25;;;35.90;32.20;;;29.85;36.56;95078.03;4918192;29;20039;-46
2022/08/16 08:43:36;;;;;;;6.28;3.25;;;36.10;32.00;;;29.58;34.77;95075.78;4918027;29;20015;-44
2022/08/16 08:46:02;;;;;;;4.85;3.42;;;36.30;31.20;;;29.67;35.17;95076.16;4934046;29;20034;-45
2022/08/16 08:48:35;;;;;;;4.03;3.35;;;36.40;30.70;;;29.89;33.82;95076.06;4934481;29;20479;-47
2022/08/16 08:51:08;;;;;;;4.40;3.38;;;36.60;30.00;;;30.11;33.36;95077.47;4917567;29;20031;-46
2022/08/16 08:53:38;;;;;;;3.13;2.88;;;36.80;29.70;;;29.80;34.40;95076.50;4933708;29;20019;-47
2022/08/16 08:56:08;;;;;;;4.28;3.20;;;36.80;29.50;;;30.03;33.71;95083.44;4916953;29;20478;-47
2022/08/16 08:58:37;;;;;;;3.55;3.25;;;36.80;29.30;;;30.30;34.41;95089.91;4934857;29;20106;-46
2022/08/16 09:01:07;;;;;;;4.00;3.38;;;36.90;29.30;;;30.64;32.57;95087.28;4909757;29;20490;-47
2022/08/16 09:03:36;;;;;;;4.10;3.30;;;37.10;29.00;;;30.85;33.06;95080.06;4898909;29;20167;-44
2022/08/16 09:06:09;;;;;;;6.47;3.70;;;37.10;28.90;;;30.91;32.80;95081.19;4920427;29;20110;-46
2022/08/16 09:08:35;;;;;;;5.10;3.83;;;37.30;28.80;;;30.89;32.76;95076.09;4921265;29;20030;-44
2022/08/16 09:11:04;;;;;;;5.85;3.88;;;37.40;28.70;;;30.80;33.55;95070.28;4933677;29;20034;-44
2022/08/16 09:13:33;;;;;;;7.28;3.65;;;37.60;28.60;;;31.18;32.54;95072.25;4917267;29;20027;-47
2022/08/16 09:16:06;;;;;;;5.70;3.70;;;37.70;28.40;;;31.32;32.07;95081.13;4916514;29;20085;-46
2022/08/16 09:18:41;;;;;;;4.07;3.67;;;37.90;28.00;;;31.41;32.54;95085.38;4934299;29;20030;-46
2022/08/16 09:21:07;;;;;;;4.10;3.70;;;38.10;28.10;;;31.45;31.92;95083.38;4917355;29;20564;-44
2022/08/16 09:23:34;;;;;;;4.22;3.28;;;38.20;27.90;;;31.48;31.81;95080.56;4932412;29;20078;-49
2022/08/16 09:26:11;;;;;;;4.32;3.92;;;38.30;27.70;;;31.46;31.51;95076.66;4933209;29;20142;-50
2022/08/16 09:28:38;;;;;;;4.15;3.78;;;38.50;27.50;;;31.46;31.60;95076.66;4917180;29;20035;-48
2022/08/16 09:31:14;;;;;;;4.85;3.95;;;38.60;27.30;;;31.79;30.94;95066.81;4916207;29;20023;-45
2022/08/16 09:33:42;;;;;;;5.13;3.85;;;38.70;27.10;;;31.74;30.83;95068.03;4918152;29;20015;-50
2022/08/16 09:36:10;;;;;;;3.83;3.53;;;38.80;26.90;;;31.70;31.17;95070.06;4899997;29;20035;-46
2022/08/16 09:38:38;;;;;;;5.82;4.05;;;39.00;26.80;;;31.73;30.92;95072.00;4916731;29;20426;-49
2022/08/16 09:41:09;;;;;;;6.40;4.13;;;39.10;26.60;;;32.19;30.31;95061.53;4898454;29;20035;-49
2022/08/16 09:43:38;;;;;;;4.00;3.33;;;39.20;26.30;;;32.57;29.68;95064.88;4925851;29;20031;-47
2022/08/16 09:46:07;;;;;;;4.32;3.85;;;39.40;26.30;;;32.86;29.20;95069.91;4897081;29;20062;-44
2022/08/16 09:48:40;;;;;;;3.85;3.55;;;39.50;25.90;;;32.81;28.86;95068.41;4896874;29;20024;-45
2022/08/16 09:51:11;;;;;;;4.72;3.42;;;39.60;25.80;;;33.17;29.79;95062.25;4881947;29;20045;-54
2022/08/16 09:53:41;;;;;;;4.35;4.00;;;39.70;25.90;;;33.31;28.95;95070.22;4914202;29;20482;-46
2022/08/16 09:56:27;;;;;;;4.18;3.88;;;39.90;25.80;;;33.52;28.32;95071.03;4931462;29;20074;-47
2022/08/16 09:58:57;;;;;;;4.78;4.10;;;40.10;25.70;;;33.47;28.23;95068.75;4916462;29;20019;-46
2022/08/16 10:01:24;;;;;;;4.03;3.67;;;40.20;25.40;;;33.45;27.57;95068.41;4921336;29;20098;-49
2022/08/16 10:03:56;;;;;;;5.75;4.10;;;40.30;25.00;;;33.75;27.38;95075.69;4920241;29;20135;-44
2022/08/16 10:06:26;;;;;;;4.43;4.03;;;40.40;24.80;;;33.38;28.05;95072.09;4912801;29;20035;-45
2022/08/16 10:08:52;;;;;;;4.72;4.22;;;40.50;24.70;;;34.03;27.93;95077.06;4926301;29;20026;-51
2022/08/16 10:14:03;;;;;;;6.82;4.07;;;40.80;24.60;;;34.28;26.62;95068.97;4935397;28;20050;-54
2022/08/16 10:16:32;;;;;;;4.28;3.90;;;41.10;24.40;;;34.27;27.16;95066.66;4926149;29;20058;-47
2022/08/16 10:19:01;;;;;;;4.28;3.85;;;41.20;24.10;;;34.31;26.71;95061.81;4927589;29;20019;-46
2022/08/16 10:21:30;;;;;;;5.07;3.83;;;41.30;24.00;;;34.22;26.64;95062.44;4926288;28;20097;-48
2022/08/16 10:23:57;;;;;;;4.25;3.95;;;41.50;23.80;;;34.29;26.66;95064.25;4930563;29;20148;-44
2022/08/16 10:26:24;;;;;;;4.38;3.97;;;41.60;23.70;;;34.45;26.24;95069.78;4926247;29;20505;-55
2022/08/16 10:28:53;;;;;;;4.68;3.65;;;41.70;23.60;;;34.47;25.85;95066.56;4905963;29;20035;-48
2022/08/16 10:31:25;;;;;;;4.53;4.13;;;41.80;23.30;;;34.10;25.74;95071.41;4923730;29;20123;-45
2022/08/16 10:34:10;;;;;;;5.20;3.88;;;41.80;23.10;;;34.08;25.45;95068.28;4913955;29;20419;-46
2022/08/16 10:36:36;;;;;;;4.50;4.10;;;41.70;23.00;;;34.42;26.36;95059.56;4912060;29;20491;-47